Largo, MD

11:43 PM EST on January 25, 2015 (GMT -0500)
Marlboro Ridge | Change Station
CLOSE
Current Station
Personal Weather Station
Location: Upper Marlboro, MD
Elevation: 151 ft
Nearby Weather Stations
Active Advisory: Winter Weather Advisory

Elev 151 ft 38.83 °N, 76.81 °W | Updated 3 minutes ago

Overcast
Overcast
41.5 °F
Feels Like 42 °F
N
1.7
Wind Variable Wind from NNE

Today
High -- | Low -- °F
--% Chance of Precip.
Yesterday
High -- | Low -- °F
Precip. -- in
7:18 AM 5:20 PM
Waxing Crescent, 39% visible
Pressure 29.88 in
Visibility 10.0 miles
Clouds Overcast 8000 ft
Windchill 42 °F
Dew Point 31 °F
Humidity 66%
Rainfall 0.00 in
Snow Depth Not available.
UV 0 out of 12
Pollen 1.30 out of 12
Air Quality Not available.
Flu Activity Not available.
METAR KADW 260358Z AUTO 13005KT 10SM OVC080 06/00 A2985 RMK AO2 SLP116 T00561000 $

More Conditions Fewer Conditions

Pressure 29.88 in
Visibility 10.0 miles
Clouds Overcast 8000 ft
Windchill 42 °F
Dew Point 31 °F
Humidity 66%
Rainfall 0.00 in
Snow Depth Not available.
UV 0 out of 12
Pollen 1.30 out of 12
Air Quality Not available.
Flu Activity Not available.
METAR KADW 260358Z AUTO 13005KT 10SM OVC080 06/00 A2985 RMK AO2 SLP116 T00561000 $

More Conditions Fewer Conditions

10-Day Weather Forecast

Almanac

Astronomy

Jan. 25, 2015 Rise Set
Actual Time
Civil Twilight
Nautical Twilight
Astronomical Twilight
Moon
Length of Visible Light
Length of Day
Tomorrow will be .
, % of the Moon is Illuminated

Today's Extremes

State Highs State Lows

Community

WunderPhotos

Upload Photos

1,790,139 photos uploaded!

WunderBlogs® & News

Nearby

Air Quality

  Air Quality AQ Index Pollutant
Not available.

Snow Depth

Station Depth Elevation

Earthquake Activity

City Distance Mag. Time & Date
Minimum magnitude displayed is 2.5.

Coastal Water Temperatures

Place Temperature

Nearby Weather Stations